Time;durP1;ratioP1;P1;durP2;ratioP2;P2;SDS_P1;SDS_P2;PMS_P1;PMS_P2;Temp;Humidity;BMP_temperature;BMP_pressure;BME280_temperature;BME280_humidity;BME280_pressure;Samples;Min_cycle;Max_cycle;Signal;HPM_P1;HPM_P2
2023/10/27 00:02:10;;;;;;;92.03;43.35;;;;;;;10.76;100.00;99049.69;4974597;28;20031;-62
2023/10/27 00:04:35;;;;;;;90.72;40.13;;;;;;;10.70;100.00;99041.25;4974369;28;20054;-60
2023/10/27 00:07:00;;;;;;;95.57;43.65;;;;;;;10.75;100.00;99046.22;4974686;28;20425;-62
2023/10/27 00:09:26;;;;;;;108.15;43.85;;;;;;;10.40;100.00;98990.50;4974350;28;20482;-60
2023/10/27 00:11:51;;;;;;;112.68;44.80;;;;;;;10.71;100.00;99044.72;4974358;28;20121;-65
2023/10/27 00:14:16;;;;;;;106.22;45.20;;;;;;;10.72;100.00;99047.25;4973480;28;20045;-64
2023/10/27 00:16:42;;;;;;;117.53;47.20;;;;;;;10.65;100.00;99031.94;4974708;28;20043;-59
2023/10/27 00:19:07;;;;;;;107.93;46.15;;;;;;;10.22;100.00;98981.09;4974435;28;20062;-62
2023/10/27 00:21:32;;;;;;;115.68;48.65;;;;;;;10.66;100.00;99042.38;4973929;28;20482;-63
2023/10/27 00:23:58;;;;;;;127.10;49.42;;;;;;;10.68;100.00;99047.56;4972900;28;20035;-62
2023/10/27 00:26:23;;;;;;;120.70;47.25;;;;;;;10.32;100.00;98978.75;4974155;28;20093;-60
2023/10/27 00:28:50;;;;;;;112.30;47.47;;;;;;;10.61;100.00;99026.03;4973870;28;20027;-60
2023/10/27 00:31:15;;;;;;;115.93;47.80;;;;;;;10.27;100.00;98973.78;5003133;28;20034;-61
2023/10/27 00:33:40;;;;;;;117.15;48.85;;;;;;;10.40;100.00;98989.66;4993577;28;20478;-60
2023/10/27 00:36:06;;;;;;;122.47;46.53;;;;;;;10.28;100.00;98967.56;4993310;28;20490;-65
2023/10/27 00:38:31;;;;;;;116.70;44.80;;;;;;;10.30;100.00;98967.50;4993338;28;20039;-60
2023/10/27 00:40:56;;;;;;;116.47;45.75;;;;;;;10.29;100.00;98958.75;4993307;28;20137;-64
2023/10/27 00:43:22;;;;;;;141.35;46.78;;;;;;;10.63;100.00;99018.03;4992128;28;20493;-64
2023/10/27 00:45:49;;;;;;;119.90;46.25;;;;;;;10.67;100.00;99019.53;4991972;28;20538;-69
2023/10/27 00:48:18;;;;;;;103.78;44.92;;;;;;;10.55;100.00;99001.88;4993454;28;20168;-65
2023/10/27 00:50:44;;;;;;;101.95;43.75;;;;;;;10.58;100.00;99010.41;4991914;28;20030;-60
2023/10/27 00:53:10;;;;;;;110.43;45.28;;;;;;;10.24;100.00;98950.31;4993260;28;20436;-65
2023/10/27 00:55:36;;;;;;;103.10;44.55;;;;;;;10.63;100.00;99018.88;4992069;28;20030;-66
2023/10/27 00:58:02;;;;;;;108.68;44.42;;;;;;;10.22;100.00;98941.63;4993214;28;20061;-61
2023/10/27 01:00:28;;;;;;;99.80;42.15;;;;;;;10.61;100.00;99012.03;4991495;28;20064;-61
2023/10/27 01:02:53;;;;;;;101.63;44.47;;;;;;;10.23;100.00;98943.34;4991889;28;20498;-64
2023/10/27 01:05:18;;;;;;;102.40;43.42;;;;;;;10.19;100.00;98935.75;5008040;28;20042;-65
2023/10/27 01:07:44;;;;;;;90.30;40.15;;;;;;;10.64;100.00;99010.06;4993336;28;20130;-61
2023/10/27 01:10:09;;;;;;;91.47;40.45;;;;;;;10.27;100.00;98947.50;5008162;28;20027;-67
2023/10/27 01:12:34;;;;;;;94.65;40.08;;;;;;;10.66;100.00;99012.56;5007913;28;20030;-66
2023/10/27 01:15:00;;;;;;;87.18;39.70;;;;;;;10.39;100.00;98959.88;4991701;28;20038;-65
2023/10/27 01:17:25;;;;;;;96.40;40.83;;;;;;;10.66;100.00;99007.31;4992045;28;20081;-61
2023/10/27 01:19:50;;;;;;;85.35;38.45;;;;;;;10.71;100.00;99007.91;4992775;28;20490;-60
2023/10/27 01:22:16;;;;;;;92.82;39.85;;;;;;;10.70;100.00;99004.41;4991534;28;20455;-68
2023/10/27 01:24:41;;;;;;;85.15;38.25;;;;;;;10.56;100.00;98985.16;4992622;28;20031;-61
2023/10/27 01:27:07;;;;;;;88.03;36.78;;;;;;;10.58;100.00;98975.38;4991327;28;20529;-61
2023/10/27 01:29:33;;;;;;;86.95;36.15;;;;;;;10.68;100.00;99010.72;4992639;28;20414;-68
2023/10/27 01:31:58;;;;;;;91.43;36.08;;;;;;;10.41;100.00;98952.75;5007981;28;20363;-61
2023/10/27 01:34:24;;;;;;;75.63;34.45;;;;;;;10.39;100.00;98945.91;4990472;28;20429;-61
2023/10/27 01:36:49;;;;;;;81.57;34.47;;;;;;;10.66;100.00;98988.88;4992777;28;20558;-64
2023/10/27 01:39:14;;;;;;;74.35;32.38;;;;;;;10.31;100.00;98929.72;4992586;28;20121;-61
2023/10/27 01:41:40;;;;;;;72.10;33.83;;;;;;;10.65;100.00;98989.84;4995478;28;20038;-65
2023/10/27 01:44:05;;;;;;;77.05;34.92;;;;;;;10.66;100.00;98984.47;5011798;28;20474;-61
2023/10/27 01:46:30;;;;;;;74.78;35.78;;;;;;;10.34;100.00;98921.63;4996723;28;20088;-62
2023/10/27 01:48:56;;;;;;;78.15;35.40;;;;;;;10.29;100.00;98916.69;4995400;28;20045;-62
2023/10/27 01:51:21;;;;;;;79.93;37.25;;;;;;;10.65;100.00;98979.31;4996594;28;20038;-62
2023/10/27 01:53:46;;;;;;;91.65;37.53;;;;;;;10.55;100.00;98963.25;4995553;28;20039;-61
2023/10/27 01:56:12;;;;;;;83.55;36.80;;;;;;;10.64;100.00;98981.09;5011585;28;20057;-67
2023/10/27 01:58:40;;;;;;;72.60;36.58;;;;;;;10.65;100.00;98976.69;4995985;28;20038;-62
2023/10/27 02:01:06;;;;;;;73.25;35.83;;;;;;;10.65;100.00;98985.41;4996327;28;20045;-67
2023/10/27 02:03:32;;;;;;;67.40;34.80;;;;;;;10.65;100.00;98979.31;4996388;28;20034;-63
2023/10/27 02:05:58;;;;;;;70.70;35.15;;;;;;;10.61;100.00;98972.56;4994783;28;20552;-61
2023/10/27 02:08:23;;;;;;;71.82;35.47;;;;;;;10.56;100.00;98972.00;4993822;28;20037;-61
2023/10/27 02:10:49;;;;;;;84.00;35.00;;;;;;;10.58;100.00;98968.31;4994925;28;20030;-68
2023/10/27 02:13:14;;;;;;;75.88;36.13;;;;;;;10.58;100.00;98965.69;4995073;28;20394;-60
2023/10/27 02:15:39;;;;;;;67.03;34.22;;;;;;;10.18;100.00;98898.09;4996067;28;20085;-60
2023/10/27 02:18:05;;;;;;;64.70;34.72;;;;;;;10.61;100.00;98969.91;4996228;28;20034;-61
2023/10/27 02:20:30;;;;;;;72.72;35.42;;;;;;;10.26;100.00;98897.59;4995881;28;20038;-61
2023/10/27 02:22:55;;;;;;;69.18;34.90;;;;;;;10.63;100.00;98971.50;4995976;28;20037;-60
2023/10/27 02:25:21;;;;;;;77.20;34.28;;;;;;;10.59;100.00;98961.28;5010187;28;20502;-65
2023/10/27 02:27:46;;;;;;;60.53;32.85;;;;;;;10.64;100.00;98969.72;4994535;28;20041;-61
2023/10/27 02:30:11;;;;;;;71.03;35.75;;;;;;;10.57;100.00;98956.09;4995860;28;20027;-60
2023/10/27 02:32:37;;;;;;;66.68;32.72;;;;;;;10.66;100.00;98959.94;5010844;28;20108;-61
2023/10/27 02:35:02;;;;;;;76.57;34.67;;;;;;;10.57;100.00;98947.34;4995666;28;20054;-70
2023/10/27 02:37:28;;;;;;;59.55;30.48;;;;;;;10.56;100.00;98949.19;4994329;28;20041;-63
2023/10/27 02:39:53;;;;;;;61.78;27.90;;;;;;;10.52;100.00;98939.78;4994919;28;20046;-70
2023/10/27 02:42:18;;;;;;;50.17;26.73;;;;;;;10.20;100.00;98890.94;4995439;28;20030;-61
2023/10/27 02:44:44;;;;;;;54.22;27.83;;;;;;;10.34;100.00;98906.72;4995473;28;20087;-65
2023/10/27 02:47:09;;;;;;;54.50;27.60;;;;;;;10.67;100.00;98954.59;4995329;28;20030;-61
2023/10/27 02:49:34;;;;;;;48.72;27.33;;;;;;;10.67;100.00;98962.50;4995456;28;20042;-60
2023/10/27 02:52:00;;;;;;;52.03;27.48;;;;;;;10.67;100.00;98961.66;4994657;28;20478;-63
2023/10/27 02:54:25;;;;;;;53.65;25.80;;;;;;;10.65;100.00;98967.00;4994408;28;20485;-60
2023/10/27 02:56:51;;;;;;;47.67;25.88;;;;;;;10.50;100.00;98946.06;4995064;28;20030;-61
2023/10/27 02:59:16;;;;;;;50.15;26.23;;;;;;;10.65;100.00;98959.09;4995125;28;20038;-64
2023/10/27 03:01:45;;;;;;;50.28;25.27;;;;;;;10.62;100.00;98953.22;5010256;28;20034;-61
2023/10/27 03:04:10;;;;;;;48.90;25.27;;;;;;;9.98;100.00;98843.22;4995597;28;20156;-68
2023/10/27 03:06:36;;;;;;;54.85;25.65;;;;;;;10.18;100.00;98871.78;4994957;28;20218;-64
2023/10/27 03:09:02;;;;;;;55.92;25.42;;;;;;;10.23;100.00;98880.25;4994052;28;20049;-65
2023/10/27 03:11:27;;;;;;;60.65;26.10;;;;;;;10.34;100.00;98896.19;4994094;28;20116;-63
2023/10/27 03:13:53;;;;;;;46.78;24.38;;;;;;;10.67;100.00;98957.25;4993595;28;20245;-66
2023/10/27 03:16:18;;;;;;;46.10;24.67;;;;;;;10.69;100.00;98952.72;4995131;28;20062;-66
2023/10/27 03:18:44;;;;;;;53.08;25.40;;;;;;;10.68;100.00;98958.91;4995101;28;20050;-60
2023/10/27 03:21:09;;;;;;;49.05;24.45;;;;;;;10.65;100.00;98953.84;4995221;28;20042;-64
2023/10/27 03:23:35;;;;;;;46.63;23.25;;;;;;;10.31;100.00;98895.53;4995181;28;20034;-64
2023/10/27 03:26:00;;;;;;;51.17;23.55;;;;;;;10.51;100.00;98931.97;4995034;28;20038;-62
2023/10/27 03:28:25;;;;;;;49.13;23.30;;;;;;;10.67;100.00;98959.03;4993733;28;20026;-64
2023/10/27 03:30:51;;;;;;;44.13;22.13;;;;;;;10.52;100.00;98926.63;4993433;28;20038;-62
2023/10/27 03:33:17;;;;;;;38.78;20.70;;;;;;;10.26;100.00;98887.94;4994892;28;20050;-68
2023/10/27 03:35:44;;;;;;;36.95;19.55;;;;;;;10.64;100.00;98949.53;4994415;28;20038;-60
2023/10/27 03:38:10;;;;;;;39.95;19.85;;;;;;;10.40;100.00;98908.97;4994597;28;20125;-60
2023/10/27 03:40:37;;;;;;;39.67;18.50;;;;;;;10.54;100.00;98931.75;4994395;28;20066;-61
2023/10/27 03:43:02;;;;;;;38.33;18.77;;;;;;;10.28;100.00;98887.81;4994696;28;20088;-59
2023/10/27 03:45:28;;;;;;;43.05;18.70;;;;;;;10.65;100.00;98951.19;4993636;28;20046;-62
2023/10/27 03:47:53;;;;;;;33.78;16.98;;;;;;;10.65;100.00;98951.19;5009602;28;20049;-60
2023/10/27 03:50:18;;;;;;;37.15;16.88;;;;;;;10.64;100.00;98941.63;4994210;28;20533;-62
2023/10/27 03:52:44;;;;;;;32.85;17.92;;;;;;;10.32;100.00;98898.06;4994522;28;20040;-62
2023/10/27 03:55:11;;;;;;;36.13;17.30;;;;;;;10.58;100.00;98938.53;4994134;28;20466;-69
2023/10/27 03:57:39;;;;;;;31.70;16.73;;;;;;;10.66;100.00;98946.78;4993869;28;20033;-61
2023/10/27 04:00:07;;;;;;;35.55;17.25;;;;;;;10.65;100.00;98950.38;4993911;28;20437;-61
2023/10/27 04:02:33;;;;;;;35.22;17.55;;;;;;;10.17;100.00;98867.47;4992830;28;20085;-67
2023/10/27 04:04:58;;;;;;;45.72;19.17;;;;;;;10.23;100.00;98888.13;4994046;28;20069;-63
2023/10/27 04:07:24;;;;;;;37.30;17.45;;;;;;;10.64;100.00;98943.41;4994019;28;20036;-68
2023/10/27 04:09:50;;;;;;;48.25;18.52;;;;;;;10.56;100.00;98932.53;4993975;28;20034;-68
2023/10/27 04:12:15;;;;;;;34.88;17.85;;;;;;;10.31;100.00;98887.63;4993899;28;20038;-61
2023/10/27 04:14:40;;;;;;;39.17;19.42;;;;;;;10.38;100.00;98888.97;4993946;28;20030;-67
2023/10/27 04:17:06;;;;;;;43.95;19.45;;;;;;;10.62;100.00;98940.88;4992538;28;20085;-61
2023/10/27 04:19:31;;;;;;;37.88;19.48;;;;;;;10.25;100.00;98873.09;4992446;28;20493;-61
2023/10/27 04:21:56;;;;;;;56.42;22.50;;;;;;;10.25;100.00;98877.50;4993716;28;20509;-61
2023/10/27 04:24:22;;;;;;;47.17;20.55;;;;;;;10.51;100.00;98917.03;4993444;28;20407;-62
2023/10/27 04:26:47;;;;;;;58.38;22.15;;;;;;;10.61;100.00;98940.97;5008965;28;20193;-68
2023/10/27 04:29:12;;;;;;;61.40;23.75;;;;;;;10.57;100.00;98935.06;4993771;28;20030;-64
2023/10/27 04:31:39;;;;;;;52.50;23.30;;;;;;;10.53;100.00;98930.09;4992589;28;20046;-61
2023/10/27 04:34:04;;;;;;;60.88;23.02;;;;;;;10.56;100.00;98951.81;4992313;28;20497;-62
2023/10/27 04:36:29;;;;;;;58.95;23.80;;;;;;;10.18;100.00;98879.69;4993616;28;20043;-63
2023/10/27 04:38:55;;;;;;;56.42;26.00;;;;;;;10.05;100.00;98861.16;5008679;28;20125;-61
2023/10/27 04:41:20;;;;;;;60.30;24.20;;;;;;;10.58;100.00;98949.06;4993338;28;20089;-63
2023/10/27 04:43:46;;;;;;;68.90;25.73;;;;;;;10.57;100.00;98944.72;4993799;28;20038;-62
2023/10/27 04:46:11;;;;;;;67.10;24.92;;;;;;;10.16;100.00;98881.53;4991943;28;20427;-71
2023/10/27 04:48:37;;;;;;;61.17;24.73;;;;;;;10.59;100.00;98950.75;4992445;28;20077;-67
2023/10/27 04:51:04;;;;;;;66.43;25.50;;;;;;;10.27;100.00;98896.69;4992023;28;20453;-64
2023/10/27 04:53:32;;;;;;;64.68;25.73;;;;;;;10.62;100.00;98958.47;4993227;28;20095;-62
2023/10/27 04:55:57;;;;;;;90.03;27.85;;;;;;;10.23;100.00;98892.53;4992070;28;20121;-62
2023/10/27 04:58:23;;;;;;;66.40;24.85;;;;;;;10.27;100.00;98894.03;5008505;28;20545;-62
2023/10/27 05:00:49;;;;;;;62.22;25.35;;;;;;;10.29;100.00;98900.91;4993063;28;20034;-63
2023/10/27 05:03:16;;;;;;;55.85;24.02;;;;;;;10.43;100.00;98921.91;4992112;28;20119;-62
2023/10/27 05:05:41;;;;;;;66.72;24.60;;;;;;;10.59;100.00;98948.97;5007773;28;20050;-68
2023/10/27 05:08:06;;;;;;;62.38;24.80;;;;;;;10.23;100.00;98889.91;4992945;28;20034;-67
2023/10/27 05:10:32;;;;;;;54.45;24.38;;;;;;;10.63;100.00;98945.19;4992867;28;20038;-59
2023/10/27 05:12:58;;;;;;;63.75;24.98;;;;;;;10.54;100.00;98943.13;4991534;28;20330;-61
2023/10/27 05:15:25;;;;;;;57.35;25.15;;;;;;;10.57;100.00;98935.06;4992504;28;20062;-64
2023/10/27 05:17:50;;;;;;;65.88;25.27;;;;;;;10.62;100.00;98948.75;4992686;28;20517;-63
2023/10/27 05:20:15;;;;;;;65.18;26.17;;;;;;;10.35;100.00;98904.94;4992563;28;20125;-61
2023/10/27 05:22:41;;;;;;;58.67;24.77;;;;;;;10.26;100.00;98887.09;4991765;28;20470;-61
2023/10/27 05:25:06;;;;;;;57.75;24.23;;;;;;;10.28;100.00;98883.41;4993053;28;20405;-62
2023/10/27 05:27:33;;;;;;;78.57;26.25;;;;;;;10.40;100.00;98916.84;4993004;28;20398;-65
2023/10/27 05:29:59;;;;;;;62.80;24.75;;;;;;;10.18;100.00;98887.56;5007157;28;20030;-64
2023/10/27 05:32:24;;;;;;;72.65;26.17;;;;;;;10.23;100.00;98882.00;4984796;28;20036;-68
2023/10/27 05:34:50;;;;;;;83.82;26.50;;;;;;;10.59;100.00;98950.75;4986768;28;20039;-68
2023/10/27 05:37:15;;;;;;;68.28;25.67;;;;;;;10.19;100.00;98886.63;4980572;28;21421;-63
2023/10/27 05:39:40;;;;;;;68.07;25.92;;;;;;;10.20;100.00;98890.94;4991643;28;20034;-65
2023/10/27 05:42:06;;;;;;;88.15;28.17;;;;;;;10.55;100.00;98944.00;4991976;28;20039;-66
2023/10/27 05:44:31;;;;;;;64.93;24.42;;;;;;;10.54;100.00;98943.13;4992388;28;20038;-63
2023/10/27 05:46:58;;;;;;;70.00;25.63;;;;;;;10.54;100.00;98950.19;4991460;28;20065;-63
2023/10/27 05:49:23;;;;;;;71.18;25.80;;;;;;;10.18;100.00;98890.19;4990480;28;20050;-68
2023/10/27 05:51:49;;;;;;;51.55;22.73;;;;;;;10.58;100.00;98951.69;4991123;28;20046;-66
2023/10/27 05:54:15;;;;;;;64.88;24.75;;;;;;;10.53;100.00;98938.84;4991859;28;20077;-68
2023/10/27 05:56:40;;;;;;;54.65;23.95;;;;;;;10.16;100.00;98887.66;4991675;28;20167;-66
2023/10/27 05:59:06;;;;;;;77.30;24.67;;;;;;;10.60;100.00;98948.03;4992519;28;20035;-68
2023/10/27 06:01:32;;;;;;;75.15;24.77;;;;;;;10.16;100.00;98884.16;4992456;28;20041;-70
2023/10/27 06:03:59;;;;;;;59.67;23.20;;;;;;;10.04;100.00;98869.97;4988571;28;20049;-72
2023/10/27 06:06:24;;;;;;;56.22;23.35;;;;;;;10.55;100.00;98952.72;4989958;28;20129;-60
2023/10/27 06:08:49;;;;;;;56.10;22.55;;;;;;;10.19;100.00;98891.88;4991737;28;20129;-59
2023/10/27 06:11:15;;;;;;;64.30;24.40;;;;;;;10.16;100.00;98890.28;4991412;28;20121;-59
2023/10/27 06:13:40;;;;;;;65.45;23.15;;;;;;;10.20;100.00;98896.19;4989044;28;20450;-60
2023/10/27 06:16:06;;;;;;;64.78;23.52;;;;;;;10.18;100.00;98902.50;4992281;28;20058;-60
2023/10/27 06:18:31;;;;;;;64.97;23.95;;;;;;;10.45;100.00;98932.38;4991117;28;20038;-57
2023/10/27 06:20:57;;;;;;;55.25;23.10;;;;;;;10.22;100.00;98896.94;4989678;28;20034;-59
2023/10/27 06:23:24;;;;;;;60.63;22.48;;;;;;;10.59;100.00;98950.75;4992100;28;20046;-60
2023/10/27 06:25:50;;;;;;;43.72;21.05;;;;;;;10.20;100.00;98897.97;4991349;28;20035;-58
2023/10/27 06:28:15;;;;;;;54.28;21.98;;;;;;;10.47;100.00;98941.00;5009660;28;20041;-60
2023/10/27 06:30:40;;;;;;;57.25;22.52;;;;;;;10.44;100.00;98936.78;4990406;28;20119;-58
2023/10/27 06:33:06;;;;;;;61.80;23.30;;;;;;;10.36;100.00;98932.94;4995804;28;20065;-58
2023/10/27 06:35:32;;;;;;;71.28;26.15;;;;;;;10.55;100.00;98959.78;4994130;28;20042;-58
2023/10/27 06:37:57;;;;;;;81.25;26.08;;;;;;;10.54;100.00;98958.06;4988000;28;20450;-60
2023/10/27 06:40:23;;;;;;;72.22;24.83;;;;;;;10.14;100.00;98891.31;4994309;28;20545;-62
2023/10/27 06:42:48;;;;;;;74.55;25.67;;;;;;;10.27;100.00;98915.94;4994393;28;20049;-58
2023/10/27 06:45:14;;;;;;;63.13;23.55;;;;;;;10.54;100.00;98969.44;4995668;28;20034;-58
2023/10/27 06:47:40;;;;;;;70.68;25.13;;;;;;;10.56;100.00;98966.75;4994842;28;20034;-58
2023/10/27 06:50:06;;;;;;;53.67;23.70;;;;;;;10.58;100.00;98970.09;4995252;28;20202;-59
2023/10/27 06:52:32;;;;;;;77.03;27.08;;;;;;;10.19;100.00;98905.00;4977964;28;20045;-59
2023/10/27 06:54:58;;;;;;;101.07;27.52;;;;;;;10.59;100.00;98964.78;4994279;28;20030;-60
2023/10/27 06:57:23;;;;;;;81.78;28.08;;;;;;;10.59;100.00;98979.72;4994344;28;20114;-58
2023/10/27 06:59:48;;;;;;;77.97;26.75;;;;;;;10.58;100.00;98973.59;4994153;28;20453;-59
2023/10/27 07:02:14;;;;;;;78.22;26.27;;;;;;;10.12;100.00;98903.69;4995199;28;20038;-59
2023/10/27 07:04:40;;;;;;;85.88;29.45;;;;;;;10.30;100.00;98926.25;5010088;28;20538;-59
2023/10/27 07:07:05;;;;;;;81.20;26.52;;;;;;;10.62;100.00;98982.16;4995362;28;20564;-58
2023/10/27 07:09:31;;;;;;;70.75;26.95;;;;;;;10.60;100.00;98990.13;4995218;28;20031;-61
2023/10/27 07:11:57;;;;;;;90.82;27.83;;;;;;;10.66;100.00;98973.09;4994678;28;20037;-59
2023/10/27 07:14:23;;;;;;;62.90;24.40;;;;;;;10.57;100.00;98973.66;4986819;28;20053;-59
2023/10/27 07:16:51;;;;;;;70.43;26.88;;;;;;;10.68;100.00;98981.78;4993008;28;20367;-61
2023/10/27 07:19:18;;;;;;;87.88;26.80;;;;;;;10.67;100.00;98977.44;4992790;28;20446;-59
2023/10/27 07:21:43;;;;;;;58.20;24.67;;;;;;;10.61;100.00;98969.91;4992225;28;20030;-61
2023/10/27 07:24:10;;;;;;;70.18;26.05;;;;;;;10.73;100.00;98991.06;4994815;28;20027;-59
2023/10/27 07:26:35;;;;;;;86.47;27.30;;;;;;;10.73;100.00;98992.84;5009733;28;20085;-60
2023/10/27 07:29:00;;;;;;;88.07;27.63;;;;;;;10.77;100.00;99007.50;4994720;28;20030;-60
2023/10/27 07:31:26;;;;;;;71.45;26.60;;;;;;;10.66;100.00;98981.00;5009348;28;20037;-57
2023/10/27 07:33:51;;;;;;;89.95;27.75;;;;;;;10.62;100.00;98969.81;5009418;28;20070;-59
2023/10/27 07:36:16;;;;;;;61.90;25.67;;;;;;;10.53;100.00;98951.13;4994402;28;20038;-58
2023/10/27 07:38:42;;;;;;;70.65;26.00;;;;;;;10.45;100.00;98933.19;4993120;28;20093;-61
2023/10/27 07:41:08;;;;;;;84.35;27.60;;;;;;;10.42;100.00;98911.50;4994603;28;20093;-59
2023/10/27 07:43:33;;;;;;;94.15;27.70;;;;;;;10.48;100.00;98930.38;4993264;28;20035;-59
2023/10/27 07:46:00;;;;;;;72.03;25.50;;;;;;;10.82;100.00;98992.28;4993121;28;20034;-59
2023/10/27 07:48:26;;;;;;;70.65;25.52;;;;;;;10.65;100.00;98963.53;5009178;28;20030;-58
2023/10/27 07:50:54;;;;;;;72.95;26.40;;;;;;;10.79;100.00;98981.09;4992529;28;20091;-59
2023/10/27 07:53:19;;;;;;;66.53;25.17;;;;;;;10.68;100.00;98974.69;4994086;28;20479;-59
2023/10/27 07:55:45;;;;;;;65.50;26.35;;;;;;;10.83;100.00;98996.56;4994239;28;20034;-61
2023/10/27 07:58:10;;;;;;;55.05;23.67;;;;;;;10.87;100.00;99000.72;4994307;28;20044;-56
2023/10/27 08:00:37;;;;;;;58.10;24.83;;;;;;;10.48;100.00;98945.28;4992907;28;20062;-55
2023/10/27 08:03:02;;;;;;;53.47;24.13;;;;;;;10.88;100.00;99001.56;4994114;28;20107;-56
2023/10/27 08:05:28;;;;;;;72.75;24.55;;;;;;;10.88;100.00;99009.47;4993788;28;20058;-59
2023/10/27 08:07:54;;;;;;;63.15;24.90;;;;;;;10.91;100.00;99006.66;4994090;28;20043;-57
2023/10/27 08:10:20;;;;;;;82.05;27.73;;;;;;;10.90;100.00;99005.78;4994099;28;20044;-58
2023/10/27 08:12:46;;;;;;;80.43;25.90;;;;;;;10.88;100.00;98994.53;4993941;28;20226;-56
2023/10/27 08:15:11;;;;;;;73.05;26.58;;;;;;;10.97;100.00;99008.91;5009006;28;20046;-57
2023/10/27 08:17:36;;;;;;;56.58;24.10;;;;;;;11.00;100.00;99012.19;4991857;28;20035;-56
2023/10/27 08:20:03;;;;;;;53.13;23.77;;;;;;;10.98;100.00;99000.03;4983176;28;20047;-56
2023/10/27 08:22:29;;;;;;;53.92;22.33;;;;;;;11.01;100.00;98997.22;4973275;28;20046;-55
2023/10/27 08:24:55;;;;;;;50.88;22.67;;;;;;;11.02;100.00;99007.66;5006500;28;20035;-55
2023/10/27 08:27:22;;;;;;;52.53;22.50;;;;;;;10.80;100.00;98975.72;4993627;28;20367;-53
2023/10/27 08:29:47;;;;;;;46.25;21.60;;;;;;;11.04;100.00;99018.94;4993510;28;20124;-57
2023/10/27 08:32:14;;;;;;;45.33;21.85;;;;;;;11.04;100.00;99018.94;4993207;28;20605;-56
2023/10/27 08:34:39;;;;;;;54.05;23.88;;;;;;;10.90;100.00;99003.16;4993416;28;20045;-55
2023/10/27 08:37:05;;;;;;;52.75;23.67;;;;;;;11.05;100.00;99025.06;4993429;28;20046;-57
2023/10/27 08:39:33;;;;;;;49.53;22.65;;;;;;;10.67;100.00;98951.97;4992253;28;20124;-53
2023/10/27 08:41:58;;;;;;;47.55;19.63;;;;;;;11.04;100.00;99013.66;4993641;28;20096;-55
2023/10/27 08:44:24;;;;;;;46.20;20.80;;;;;;;11.09;100.00;99022.13;4992760;28;20081;-61
2023/10/27 08:46:50;;;;;;;48.83;21.13;;;;;;;11.02;100.00;99007.66;4991497;28;20397;-54
2023/10/27 08:49:16;;;;;;;42.35;19.98;;;;;;;10.74;100.00;98952.41;4993403;28;20034;-55
2023/10/27 08:51:41;;;;;;;45.17;20.33;;;;;;;10.70;100.00;98949.16;4991333;28;20034;-55
2023/10/27 08:54:07;;;;;;;38.83;18.10;;;;;;;11.11;100.00;99020.25;4975251;28;20117;-54
2023/10/27 08:56:32;;;;;;;34.50;17.88;;;;;;;11.00;100.00;98996.41;4993164;28;20034;-55
2023/10/27 08:58:58;;;;;;;32.85;16.15;;;;;;;11.11;100.00;99012.34;4993195;28;20581;-56
2023/10/27 09:01:26;;;;;;;28.33;15.38;;;;;;;11.13;100.00;99018.34;4992996;28;20093;-58
2023/10/27 09:04:12;;;;;;;35.92;17.25;;;;;;;10.94;100.00;98974.88;4991747;28;20038;-59
2023/10/27 09:06:39;;;;;;;32.03;16.60;;;;;;;10.81;100.00;98955.50;4993044;28;20138;-59
2023/10/27 09:09:09;;;;;;;33.00;15.15;;;;;;;11.07;100.00;98999.47;4992482;28;20371;-57
2023/10/27 09:11:48;;;;;;;27.65;14.20;;;;;;;11.22;100.00;99023.03;4981109;28;20030;-54
2023/10/27 09:14:23;;;;;;;19.58;10.05;;;;;;;11.19;100.00;99017.97;5008105;28;20045;-57
2023/10/27 09:16:50;;;;;;;18.10;10.68;;;;;;;11.19;100.00;99009.22;5007506;28;20081;-57
2023/10/27 09:19:19;;;;;;;22.02;11.65;;;;;;;11.20;100.00;99029.34;4991394;28;20038;-58
2023/10/27 09:21:45;;;;;;;21.88;11.38;;;;;;;11.15;100.00;99005.09;4983994;28;20446;-56
2023/10/27 09:24:10;;;;;;;22.48;12.20;;;;;;;10.85;100.00;98957.03;4975651;28;20034;-57
2023/10/27 09:26:48;;;;;;;16.88;11.43;;;;;;;11.18;100.00;99007.53;5003325;28;20039;-55
2023/10/27 09:29:14;;;;;;;21.60;11.45;;;;;;;10.97;100.00;98972.03;4993011;28;20043;-58
2023/10/27 09:31:39;;;;;;;23.08;11.98;;;;;;;10.90;100.00;98961.06;4990015;28;20060;-55
2023/10/27 09:34:24;;;;;;;20.30;11.70;;;;;;;11.16;100.00;98999.72;4973409;28;20070;-52
2023/10/27 09:36:52;;;;;;;20.35;12.73;;;;;;;11.30;100.00;99022.53;4985169;28;20038;-54
2023/10/27 09:39:19;;;;;;;20.25;12.20;;;;;;;11.33;100.00;99024.97;4992487;28;20034;-58
2023/10/27 09:41:47;;;;;;;22.02;12.30;;;;;;;11.36;100.00;99032.69;4980587;28;20058;-56
2023/10/27 09:44:14;;;;;;;23.92;13.35;;;;;;;11.39;100.00;99032.50;4992126;28;20030;-57
2023/10/27 09:46:42;;;;;;;22.58;13.23;;;;;;;11.07;100.00;98970.50;5005305;28;20409;-56
2023/10/27 09:49:09;;;;;;;22.30;12.60;;;;;;;11.43;100.00;99020.81;4973761;28;20499;-54
2023/10/27 09:51:37;;;;;;;32.22;14.70;;;;;;;11.47;100.00;99032.84;4987940;28;20030;-57
2023/10/27 09:54:03;;;;;;;27.05;14.18;;;;;;;11.44;100.00;99033.03;4987882;28;20113;-54
2023/10/27 09:56:28;;;;;;;25.02;14.50;;;;;;;10.97;100.00;98946.56;4988141;28;20027;-55
2023/10/27 09:58:54;;;;;;;22.10;13.73;;;;;;;11.02;100.00;98946.25;4972057;28;20074;-56
2023/10/27 10:01:19;;;;;;;26.45;13.50;;;;;;;11.32;100.00;98994.34;4972741;28;20045;-54
2023/10/27 10:03:44;;;;;;;22.58;13.13;;;;;;;11.48;100.00;99023.16;4977001;28;20135;-57
2023/10/27 10:06:18;;;;;;;21.25;12.40;;;;;;;11.15;100.00;98973.47;4977011;28;20054;-52
2023/10/27 10:09:09;;;;;;;18.63;12.30;;;;;;;11.47;100.00;99022.31;4977018;28;20086;-57
2023/10/27 10:11:37;;;;;;;17.65;10.30;;;;;;;11.08;100.00;98961.66;4976912;28;20023;-55
2023/10/27 10:14:04;;;;;;;14.68;10.18;;;;;;;11.42;100.00;99028.81;4975622;28;20031;-56
2023/10/27 10:16:38;;;;;;;13.48;9.23;;;;;;;11.04;100.00;98974.19;4976699;28;20039;-53
2023/10/27 10:19:04;;;;;;;15.27;8.88;;;;;;;11.37;100.00;99010.69;4976783;28;20026;-54
2023/10/27 10:21:39;;;;;;;10.93;8.15;;;;;;;11.44;100.00;99030.41;4976722;28;20085;-57
2023/10/27 10:24:07;;;;;;;14.23;8.52;;;;;;;11.42;100.00;99042.84;4975568;28;20090;-56
2023/10/27 10:27:19;;;;;;;13.25;7.90;;;;;;;11.40;100.00;99028.94;4991464;28;20030;-53
2023/10/27 10:29:44;;;;;;;14.45;8.57;;;;;;;11.03;100.00;98975.09;4975536;28;20418;-58
2023/10/27 10:32:29;;;;;;;11.40;8.48;;;;;;;11.04;100.00;98960.16;4976554;28;20120;-58
2023/10/27 10:35:23;;;;;;;14.02;6.93;;;;;;;11.42;100.00;99027.03;4975213;28;20508;-57
2023/10/27 10:37:51;;;;;;;10.98;7.45;;;;;;;11.25;100.00;98998.28;4975099;28;20027;-55
2023/10/27 10:40:23;;;;;;;11.40;7.35;;;;;;;11.51;100.00;99028.22;4976265;28;20039;-58
2023/10/27 10:43:30;;;;;;;11.35;7.20;;;;;;;11.53;100.00;99035.09;4976138;28;20134;-57
2023/10/27 10:46:12;;;;;;;9.02;6.72;;;;;;;10.89;100.00;98922.50;4976196;28;20035;-57
2023/10/27 10:48:42;;;;;;;10.25;7.82;;;;;;;11.55;100.00;99013.91;4976090;28;20039;-56
2023/10/27 10:51:18;;;;;;;11.13;8.20;;;;;;;11.23;100.00;98956.28;4976204;28;20061;-56
2023/10/27 10:53:44;;;;;;;10.68;7.43;;;;;;;11.69;100.00;99020.00;4975899;28;20294;-53
2023/10/27 10:56:09;;;;;;;12.13;7.03;;;;;;;11.59;100.00;98984.63;4975938;28;20033;-56
2023/10/27 10:58:40;;;;;;;9.25;7.22;;;;;;;11.91;100.00;99015.97;4976040;28;20041;-52
2023/10/27 11:01:14;;;;;;;8.25;6.75;;;;;;;11.84;100.00;98978.63;4975886;28;20501;-54
2023/10/27 11:03:45;;;;;;;9.80;8.05;;;;;;;11.68;100.00;98920.75;4975840;28;20034;-56
2023/10/27 11:06:11;;;;;;;10.68;8.52;;;;;;;12.08;100.00;98981.41;4975771;28;20047;-55
2023/10/27 11:08:37;;;;;;;12.60;8.63;;;;;;;12.14;100.00;98992.34;4975751;28;20070;-54